Terminal Aerodrome Forecast
Issued by NWS

Home | Current Version | Previous Version | Text Only | Print | Product List | Glossary On
Versions: 1 2 3 4 5 6 7 8 9 10 11 12 13 14 15 16 17 18 19 20 21 22 23 24 25 26
000
FTUS43 KIWX 190521
TAFSBN
TAF
KSBN 190521Z 1906/2006 35012KT P6SM SCT008 OVC015
     FM190900 36014G22KT 6SM -RA OVC008
     FM191500 36016G26KT P6SM SCT010 OVC020
     FM200000 36014G23KT P6SM SCT020 OVC035
     FM200400 01013G24KT P6SM BKN100 WS020/03050KT=

USA.gov is the U.S. government's official web portal to all federal, state and local government web resources and services.